Terminal Aerodrome Forecast
Issued by NWS Cleveland, OH

Home | Current Version | Previous Version | Graphics & Text | Print | Product List | Glossary Off
Versions: 1 2 3 4 5 6 7 8 9 10 11 12 13

000
FTUS41 KCLE 182300
TAFCAK
TAF
KCAK 182330Z 1900/1924 36005KT P6SM FEW060 BKN120
     FM190800 03006KT P6SM FEW025 SCT035
      TEMPO 1910/1913 BKN025
     FM191500 05010KT P6SM FEW100 SCT250=

USA.gov is the U.S. government's official web portal to all federal, state and local government web resources and services.